createdAt,value
2018-06-14T00:00:52.892Z,100.0
2018-06-14T00:01:54.498Z,100.0
2018-06-14T00:02:56.110Z,100.0
2018-06-14T00:03:57.724Z,100.0
2018-06-14T00:04:59.341Z,99.7
2018-06-14T00:06:00.949Z,100.0
2018-06-14T00:07:02.573Z,99.8
2018-06-14T00:08:04.192Z,100.0
2018-06-14T00:09:05.797Z,99.8
2018-06-14T00:10:07.409Z,100.0
2018-06-14T00:11:09.015Z,100.0
2018-06-14T00:12:10.630Z,100.0
2018-06-14T00:13:12.240Z,99.6
2018-06-14T00:14:13.850Z,99.1
2018-06-14T00:15:15.469Z,100.0
2018-06-14T00:16:17.079Z,100.0
2018-06-14T00:17:18.744Z,100.0
2018-06-14T00:18:20.299Z,99.4
2018-06-14T00:19:21.912Z,99.6
2018-06-14T00:20:23.520Z,100.0
2018-06-14T00:21:25.131Z,100.0
2018-06-14T00:22:26.743Z,100.0
2018-06-14T00:23:28.357Z,99.5
2018-06-14T00:24:29.969Z,99.8
2018-06-14T00:25:31.584Z,100.0
2018-06-14T00:26:33.191Z,100.0
2018-06-14T00:27:34.798Z,99.8
2018-06-14T00:28:36.416Z,100.0
2018-06-14T00:29:38.029Z,100.0
2018-06-14T00:30:39.642Z,99.9
2018-06-14T00:31:41.265Z,100.0
2018-06-14T00:32:42.858Z,99.8
2018-06-14T00:33:44.473Z,100.0
2018-06-14T00:34:46.088Z,99.8
2018-06-14T00:35:47.701Z,100.0
2018-06-14T00:36:49.312Z,100.0
2018-06-14T00:37:50.926Z,100.0
2018-06-14T00:38:52.540Z,100.0
2018-06-14T00:39:54.154Z,100.0
2018-06-14T00:40:55.769Z,100.0
2018-06-14T00:41:57.376Z,100.0
2018-06-14T00:42:58.994Z,100.0
2018-06-14T00:44:00.606Z,100.0
2018-06-14T00:45:02.219Z,100.0
2018-06-14T00:46:03.831Z,99.8
2018-06-14T00:47:05.440Z,99.9
2018-06-14T00:48:07.052Z,100.0
2018-06-14T00:49:08.662Z,100.0
2018-06-14T00:50:10.275Z,100.0
2018-06-14T00:51:11.889Z,100.0
2018-06-14T00:52:13.503Z,100.0
2018-06-14T00:53:15.113Z,100.0
2018-06-14T00:54:16.722Z,100.0
2018-06-14T00:55:18.339Z,100.0
2018-06-14T00:56:19.950Z,100.0
2018-06-14T00:57:21.568Z,100.0
2018-06-14T00:58:23.179Z,100.0
2018-06-14T00:59:24.793Z,100.0
2018-06-14T01:00:26.402Z,100.0
2018-06-14T01:01:28.018Z,100.0
2018-06-14T01:02:29.633Z,100.0
2018-06-14T01:03:31.242Z,100.0
2018-06-14T01:04:32.862Z,100.0
2018-06-14T01:05:34.469Z,100.0
2018-06-14T01:06:36.082Z,100.0
2018-06-14T01:07:37.700Z,100.0
2018-06-14T01:08:39.304Z,100.0
2018-06-14T01:09:40.914Z,100.0
2018-06-14T01:10:42.529Z,100.0
2018-06-14T01:11:44.141Z,100.0
2018-06-14T01:12:45.753Z,100.0
2018-06-14T01:13:47.369Z,100.0
2018-06-14T01:14:48.978Z,100.0
2018-06-14T01:15:50.584Z,100.0
2018-06-14T01:16:52.197Z,100.0
2018-06-14T01:17:53.815Z,100.0
2018-06-14T01:18:55.422Z,100.0
2018-06-14T01:19:57.040Z,100.0
2018-06-14T01:20:58.649Z,100.0
2018-06-14T01:22:00.257Z,100.0
2018-06-14T01:23:01.867Z,100.0
2018-06-14T01:24:03.484Z,100.0
2018-06-14T01:25:05.094Z,100.0
2018-06-14T01:26:06.711Z,100.0
2018-06-14T01:27:08.319Z,100.0
2018-06-14T01:28:09.934Z,100.0
2018-06-14T01:29:11.542Z,100.0
2018-06-14T01:30:13.154Z,100.0
2018-06-14T01:31:14.763Z,100.0
2018-06-14T01:32:16.382Z,100.0
2018-06-14T01:33:17.992Z,100.0
2018-06-14T01:34:19.609Z,100.0
2018-06-14T01:35:21.215Z,100.0
2018-06-14T01:36:22.830Z,100.0
2018-06-14T01:37:24.439Z,100.0
2018-06-14T01:38:26.057Z,100.0
2018-06-14T01:39:27.665Z,100.0
2018-06-14T01:40:29.283Z,100.0
2018-06-14T01:41:30.896Z,100.0
2018-06-14T01:42:32.511Z,100.0
2018-06-14T01:43:34.119Z,100.0
2018-06-14T01:44:35.735Z,100.0
2018-06-14T01:45:37.341Z,100.0
2018-06-14T01:46:38.956Z,100.0
2018-06-14T01:47:40.565Z,100.0
2018-06-14T01:48:42.182Z,100.0
2018-06-14T01:49:43.792Z,100.0
2018-06-14T01:50:45.407Z,100.0
2018-06-14T01:51:47.016Z,100.0
2018-06-14T01:52:48.630Z,100.0
2018-06-14T01:53:50.237Z,100.0
2018-06-14T01:54:51.851Z,100.0
2018-06-14T01:55:53.472Z,100.0
2018-06-14T01:56:55.080Z,100.0
2018-06-14T01:57:56.693Z,100.0
2018-06-14T01:58:58.299Z,100.0
2018-06-14T01:59:59.908Z,100.0
2018-06-14T02:01:01.524Z,100.0
2018-06-14T02:02:03.129Z,100.0
2018-06-14T02:03:04.747Z,100.0
2018-06-14T02:04:06.353Z,100.0
2018-06-14T02:05:07.972Z,100.0
2018-06-14T02:06:09.584Z,100.0
2018-06-14T02:07:11.194Z,100.0
2018-06-14T02:08:12.813Z,100.0
2018-06-14T02:09:14.423Z,100.0
2018-06-14T02:10:16.036Z,100.0
2018-06-14T02:11:17.650Z,100.0
2018-06-14T02:12:19.260Z,100.0
2018-06-14T02:13:20.868Z,100.0
2018-06-14T02:14:22.478Z,100.0
2018-06-14T02:15:24.092Z,100.0
2018-06-14T02:16:25.713Z,100.0
2018-06-14T02:17:27.324Z,100.0
2018-06-14T02:18:28.936Z,100.0
2018-06-14T02:19:30.545Z,100.0
2018-06-14T02:20:32.162Z,100.0
2018-06-14T02:21:33.771Z,100.0
2018-06-14T02:22:35.385Z,100.0
2018-06-14T02:23:36.999Z,100.0
2018-06-14T02:24:38.606Z,100.0
2018-06-14T02:25:40.220Z,100.0
2018-06-14T02:26:41.832Z,100.0
2018-06-14T02:27:43.441Z,100.0
2018-06-14T02:28:45.052Z,100.0
2018-06-14T02:29:46.664Z,100.0
2018-06-14T02:30:48.273Z,100.0
2018-06-14T02:31:49.890Z,100.0
2018-06-14T02:32:51.504Z,100.0
2018-06-14T02:33:53.117Z,100.0
2018-06-14T02:34:54.731Z,100.0
2018-06-14T02:35:56.338Z,100.0
2018-06-14T02:36:57.952Z,100.0
2018-06-14T02:37:59.565Z,100.0
2018-06-14T02:39:01.183Z,100.0
2018-06-14T02:40:02.785Z,100.0
2018-06-14T02:41:04.394Z,100.0
2018-06-14T02:42:06.012Z,100.0
2018-06-14T02:43:07.626Z,100.0
2018-06-14T02:44:09.233Z,100.0
2018-06-14T02:45:10.845Z,100.0
2018-06-14T02:46:12.463Z,100.0
2018-06-14T02:47:14.077Z,100.0
2018-06-14T02:48:15.689Z,100.0
2018-06-14T02:49:17.302Z,100.0
2018-06-14T02:50:18.916Z,100.0
2018-06-14T02:51:20.527Z,100.0
2018-06-14T02:52:22.143Z,100.0
2018-06-14T02:53:23.751Z,100.0
2018-06-14T02:54:25.369Z,100.0
2018-06-14T02:55:26.974Z,100.0
2018-06-14T02:56:28.591Z,100.0
2018-06-14T02:57:30.201Z,100.0
2018-06-14T02:58:31.816Z,100.0
2018-06-14T02:59:33.426Z,100.0
2018-06-14T03:00:35.587Z,100.0
2018-06-14T03:01:37.205Z,100.0
2018-06-14T03:02:39.383Z,100.0
2018-06-14T03:03:40.998Z,100.0
2018-06-14T03:04:42.612Z,100.0
2018-06-14T03:05:44.225Z,100.0
2018-06-14T03:06:45.839Z,100.0
2018-06-14T03:07:47.462Z,100.0
2018-06-14T03:08:49.069Z,100.0
2018-06-14T03:09:50.687Z,100.0
2018-06-14T03:10:52.295Z,100.0
2018-06-14T03:11:53.933Z,100.0
2018-06-14T03:12:55.544Z,100.0
2018-06-14T03:13:57.161Z,100.0
2018-06-14T03:14:58.779Z,100.0
2018-06-14T03:16:00.395Z,100.0
2018-06-14T03:17:02.004Z,100.0
2018-06-14T03:18:03.617Z,100.0
2018-06-14T03:19:05.236Z,100.0
2018-06-14T03:20:06.852Z,100.0
2018-06-14T03:21:08.469Z,100.0
2018-06-14T03:22:10.085Z,100.0
2018-06-14T03:23:11.702Z,100.0
2018-06-14T03:24:13.309Z,100.0
2018-06-14T03:25:14.929Z,100.0
2018-06-14T03:26:16.540Z,100.0
2018-06-14T03:27:18.158Z,100.0
2018-06-14T03:28:19.771Z,100.0
2018-06-14T03:29:21.392Z,100.0
2018-06-14T03:30:23.007Z,100.0
2018-06-14T03:31:24.625Z,100.0
2018-06-14T03:32:26.231Z,100.0
2018-06-14T03:33:27.847Z,100.0
2018-06-14T03:34:29.464Z,100.0
2018-06-14T03:35:31.078Z,100.0
2018-06-14T03:36:32.693Z,100.0
2018-06-14T03:37:34.310Z,100.0
2018-06-14T03:38:35.923Z,100.0
2018-06-14T03:39:37.676Z,100.0
2018-06-14T03:40:39.685Z,100.0
2018-06-14T03:41:41.343Z,100.0
2018-06-14T03:42:43.054Z,100.0
2018-06-14T03:43:44.759Z,100.0
2018-06-14T03:44:46.571Z,100.0
2018-06-14T03:45:48.353Z,100.0
2018-06-14T03:46:50.158Z,100.0
2018-06-14T03:47:51.950Z,100.0
2018-06-14T03:48:53.566Z,100.0
2018-06-14T03:49:55.178Z,100.0
2018-06-14T03:50:56.799Z,100.0
2018-06-14T03:51:58.435Z,100.0
2018-06-14T03:53:00.027Z,100.0
2018-06-14T03:54:01.640Z,100.0
2018-06-14T03:55:03.253Z,100.0
2018-06-14T03:56:04.869Z,100.0
2018-06-14T03:57:06.485Z,100.0
2018-06-14T03:58:08.128Z,100.0
2018-06-14T03:59:09.742Z,100.0
2018-06-14T04:00:11.362Z,100.0
2018-06-14T04:01:12.974Z,100.0
2018-06-14T04:02:14.595Z,100.0
2018-06-14T04:03:16.261Z,100.0
2018-06-14T04:04:17.883Z,100.0
2018-06-14T04:05:19.499Z,100.0
2018-06-14T04:06:21.120Z,100.0
2018-06-14T04:07:22.739Z,100.0
2018-06-14T04:08:24.350Z,100.0
2018-06-14T04:09:25.969Z,100.0
2018-06-14T04:10:27.645Z,100.0
2018-06-14T04:11:29.204Z,100.0
2018-06-14T04:12:30.832Z,100.0
2018-06-14T04:13:32.450Z,100.0
2018-06-14T04:14:34.150Z,100.0
2018-06-14T04:15:35.769Z,100.0
2018-06-14T04:16:37.381Z,100.0
2018-06-14T04:17:39.140Z,100.0
2018-06-14T04:18:40.766Z,100.0
2018-06-14T04:19:43.041Z,99.8
2018-06-14T04:20:44.695Z,98.9
2018-06-14T04:21:46.328Z,98.1
2018-06-14T04:22:47.966Z,98.4
2018-06-14T04:23:49.588Z,98.4
2018-06-14T04:24:51.201Z,98.2
2018-06-14T04:25:52.869Z,98.7
2018-06-14T04:26:54.485Z,98.5
2018-06-14T04:27:56.142Z,98.5
2018-06-14T04:28:57.761Z,97.9
2018-06-14T04:29:59.379Z,97.4
2018-06-14T04:31:00.993Z,97.3
2018-06-14T04:32:02.609Z,97.4
2018-06-14T04:33:04.230Z,97.0
2018-06-14T04:34:05.847Z,96.9
2018-06-14T04:35:07.605Z,97.4
2018-06-14T04:36:09.221Z,97.0
2018-06-14T04:37:10.843Z,97.1
2018-06-14T04:38:13.323Z,97.0
2018-06-14T04:39:14.962Z,97.9
2018-06-14T04:40:16.554Z,98.0
2018-06-14T04:41:18.192Z,98.4
2018-06-14T04:42:19.804Z,98.5
2018-06-14T04:43:21.416Z,98.4
2018-06-14T04:44:23.033Z,98.4
2018-06-14T04:45:24.647Z,98.4
2018-06-14T04:46:26.368Z,98.4
2018-06-14T04:47:27.991Z,98.4
2018-06-14T04:48:29.607Z,98.5
2018-06-14T04:49:31.226Z,98.5
2018-06-14T04:50:32.887Z,98.4
2018-06-14T04:51:34.507Z,98.6
2018-06-14T04:52:36.125Z,98.0
2018-06-14T04:53:37.776Z,97.3
2018-06-14T04:54:39.360Z,97.0
2018-06-14T04:55:40.979Z,97.4
2018-06-14T04:56:42.605Z,97.5
2018-06-14T04:57:44.214Z,97.4
2018-06-14T04:58:45.829Z,97.8
2018-06-14T04:59:47.451Z,97.6
2018-06-14T05:00:49.067Z,97.4
2018-06-14T05:01:50.689Z,97.6
2018-06-14T05:02:52.304Z,97.7
2018-06-14T05:03:53.922Z,96.9
2018-06-14T05:04:55.540Z,97.2
2018-06-14T05:05:57.152Z,97.2
2018-06-14T05:06:58.775Z,96.6
2018-06-14T05:08:00.396Z,96.1
2018-06-14T05:09:02.002Z,96.0
2018-06-14T05:10:03.623Z,96.9
2018-06-14T05:11:05.242Z,96.3
2018-06-14T05:12:06.854Z,96.6
2018-06-14T05:13:08.472Z,96.8
2018-06-14T05:14:10.092Z,97.1
2018-06-14T05:15:11.704Z,97.1
2018-06-14T05:16:13.330Z,96.7
2018-06-14T05:17:14.946Z,97.4
2018-06-14T05:18:16.566Z,96.7
2018-06-14T05:19:18.179Z,97.9
2018-06-14T05:20:19.797Z,97.1
2018-06-14T05:21:21.413Z,97.2
2018-06-14T05:22:23.034Z,97.1
2018-06-14T05:23:24.730Z,97.2
2018-06-14T05:24:26.271Z,97.5
2018-06-14T05:25:27.882Z,97.1
2018-06-14T05:26:29.502Z,97.1
2018-06-14T05:27:31.115Z,97.7
2018-06-14T05:28:32.737Z,97.5
2018-06-14T05:29:34.396Z,97.3
2018-06-14T05:30:35.979Z,97.7
2018-06-14T05:31:37.592Z,96.7
2018-06-14T05:32:39.213Z,97.2
2018-06-14T05:33:40.823Z,97.2
2018-06-14T05:34:42.444Z,97.0
2018-06-14T05:35:44.061Z,96.8
2018-06-14T05:36:45.681Z,96.9
2018-06-14T05:37:47.297Z,96.6
2018-06-14T05:38:48.922Z,97.0
2018-06-14T05:39:50.534Z,96.0
2018-06-14T05:40:52.152Z,96.1
2018-06-14T05:41:53.772Z,96.0
2018-06-14T05:42:55.391Z,96.2
2018-06-14T05:43:57.013Z,96.4
2018-06-14T05:44:58.638Z,96.2
2018-06-14T05:46:00.256Z,96.4
2018-06-14T05:47:01.876Z,95.4
2018-06-14T05:48:03.489Z,95.6
2018-06-14T05:49:05.108Z,95.7
2018-06-14T05:50:06.727Z,95.7
2018-06-14T05:51:08.343Z,94.9
2018-06-14T05:52:09.968Z,94.1
2018-06-14T05:53:11.578Z,94.3
2018-06-14T05:54:13.193Z,94.1
2018-06-14T05:55:14.814Z,93.7
2018-06-14T05:56:16.435Z,94.2
2018-06-14T05:57:18.048Z,93.7
2018-06-14T05:58:19.668Z,93.0
2018-06-14T05:59:21.286Z,93.3
2018-06-14T06:00:22.901Z,92.6
2018-06-14T06:01:24.526Z,92.9
2018-06-14T06:02:26.143Z,92.2
2018-06-14T06:03:27.763Z,92.3
2018-06-14T06:04:29.385Z,92.5
2018-06-14T06:05:31.001Z,92.4
2018-06-14T06:06:32.616Z,91.7
2018-06-14T06:07:34.238Z,91.8
2018-06-14T06:08:35.858Z,91.7
2018-06-14T06:09:37.475Z,91.7
2018-06-14T06:10:39.093Z,90.9
2018-06-14T06:11:40.709Z,91.4
2018-06-14T06:12:42.329Z,90.4
2018-06-14T06:13:43.954Z,89.3
2018-06-14T06:14:45.575Z,86.4
2018-06-14T06:15:47.197Z,84.2
2018-06-14T06:16:48.824Z,81.6
2018-06-14T06:17:50.440Z,79.5
2018-06-14T06:18:52.057Z,76.4
2018-06-14T06:19:53.691Z,73.5
2018-06-14T06:20:55.297Z,71.2
2018-06-14T06:21:56.923Z,70.2
2018-06-14T06:22:58.545Z,69.3
2018-06-14T06:24:00.163Z,68.1
2018-06-14T06:25:01.797Z,66.0
2018-06-14T06:26:03.413Z,65.8
2018-06-14T06:27:05.058Z,62.6
2018-06-14T06:28:06.655Z,62.0
2018-06-14T06:29:08.273Z,62.1
2018-06-14T06:30:09.898Z,62.1
2018-06-14T06:31:11.518Z,59.0
2018-06-14T06:32:13.145Z,59.0
2018-06-14T06:33:14.819Z,57.9
2018-06-14T06:34:16.389Z,57.3
2018-06-14T06:35:18.019Z,57.3
2018-06-14T06:36:19.640Z,56.6
2018-06-14T06:37:21.281Z,56.3
2018-06-14T06:38:22.898Z,56.2
2018-06-14T06:39:24.528Z,53.8
2018-06-14T06:40:26.148Z,53.2
2018-06-14T06:41:27.781Z,53.0
2018-06-14T06:42:29.402Z,51.1
2018-06-14T06:43:31.031Z,50.6
2018-06-14T06:44:32.660Z,51.2
2018-06-14T06:45:34.278Z,50.0
2018-06-14T06:46:35.909Z,50.2
2018-06-14T06:47:37.532Z,49.9
2018-06-14T06:48:39.167Z,51.0
2018-06-14T06:49:40.787Z,49.4
2018-06-14T06:50:42.417Z,48.5
2018-06-14T06:51:44.045Z,49.4
2018-06-14T06:52:45.669Z,48.5
2018-06-14T06:53:47.300Z,48.9
2018-06-14T06:54:48.925Z,48.2
2018-06-14T06:55:50.555Z,48.7
2018-06-14T06:56:52.182Z,48.1
2018-06-14T06:57:53.811Z,47.7
2018-06-14T06:58:55.454Z,47.3
2018-06-14T06:59:57.064Z,47.9
2018-06-14T07:00:58.690Z,47.7
2018-06-14T07:02:00.319Z,47.0
2018-06-14T07:03:01.944Z,46.3
2018-06-14T07:04:03.577Z,46.3
2018-06-14T07:05:05.207Z,46.2
2018-06-14T07:06:06.910Z,47.6
2018-06-14T07:07:08.469Z,47.4
2018-06-14T07:08:10.093Z,46.7
2018-06-14T07:09:11.725Z,46.7
2018-06-14T07:10:13.353Z,46.4
2018-06-14T07:11:14.989Z,46.6
2018-06-14T07:12:16.614Z,47.3
2018-06-14T07:13:18.246Z,47.9
2018-06-14T07:14:19.871Z,46.8
2018-06-14T07:15:21.502Z,46.4
2018-06-14T07:16:23.127Z,46.0
2018-06-14T07:17:24.755Z,46.5
2018-06-14T07:18:26.384Z,46.7
2018-06-14T07:19:28.017Z,46.2
2018-06-14T07:20:29.640Z,48.1
2018-06-14T07:21:31.313Z,47.0
2018-06-14T07:22:32.899Z,47.5
2018-06-14T07:23:34.526Z,46.7
2018-06-14T07:24:36.157Z,46.5
2018-06-14T07:25:37.791Z,45.2
2018-06-14T07:26:39.433Z,44.3
2018-06-14T07:27:41.095Z,45.2
2018-06-14T07:28:42.675Z,45.2
2018-06-14T07:29:44.310Z,45.5
2018-06-14T07:30:45.942Z,45.1
2018-06-14T07:31:47.570Z,44.8
2018-06-14T07:32:49.198Z,43.0
2018-06-14T07:33:50.831Z,44.4
2018-06-14T07:34:52.458Z,42.6
2018-06-14T07:35:54.088Z,42.7
2018-06-14T07:36:55.718Z,42.7
2018-06-14T07:37:57.355Z,42.2
2018-06-14T07:38:58.988Z,42.2
2018-06-14T07:40:00.618Z,42.3
2018-06-14T07:41:02.247Z,43.6
2018-06-14T07:42:03.882Z,43.6
2018-06-14T07:43:05.565Z,44.6
2018-06-14T07:44:07.144Z,43.6
2018-06-14T07:45:08.775Z,43.2
2018-06-14T07:46:10.409Z,42.4
2018-06-14T07:47:12.041Z,42.7
2018-06-14T07:48:13.678Z,43.4
2018-06-14T07:49:15.310Z,42.9
2018-06-14T07:50:16.938Z,41.7
2018-06-14T07:51:18.568Z,40.7
2018-06-14T07:52:20.206Z,40.4
2018-06-14T07:53:21.835Z,40.7
2018-06-14T07:54:23.475Z,40.4
2018-06-14T07:55:25.107Z,40.5
2018-06-14T07:56:26.736Z,40.6
2018-06-14T07:57:28.373Z,39.3
2018-06-14T07:58:30.004Z,39.1
2018-06-14T07:59:31.641Z,36.8
2018-06-14T08:00:33.271Z,37.9
2018-06-14T08:01:34.909Z,36.6
2018-06-14T08:02:36.542Z,37.3
2018-06-14T08:03:38.177Z,37.1
2018-06-14T08:04:39.808Z,36.9
2018-06-14T08:05:41.439Z,37.1
2018-06-14T08:06:43.077Z,37.6
2018-06-14T08:07:44.705Z,36.2
2018-06-14T08:08:46.347Z,36.2
2018-06-14T08:09:47.983Z,35.5
2018-06-14T08:10:49.620Z,36.0
2018-06-14T08:11:51.253Z,35.1
2018-06-14T08:12:52.886Z,34.6
2018-06-14T08:13:54.521Z,34.4
2018-06-14T08:14:56.160Z,33.2
2018-06-14T08:15:57.794Z,33.0
2018-06-14T08:16:59.434Z,32.7
2018-06-14T08:18:01.069Z,32.1
2018-06-14T08:19:02.705Z,32.0
2018-06-14T08:20:04.336Z,31.6
2018-06-14T08:21:05.978Z,31.4
2018-06-14T08:22:07.615Z,31.7
2018-06-14T08:23:09.253Z,31.2
2018-06-14T08:24:10.891Z,31.6
2018-06-14T08:25:12.531Z,31.2
2018-06-14T08:26:14.167Z,31.2
2018-06-14T08:27:15.800Z,30.9
2018-06-14T08:28:17.440Z,31.6
2018-06-14T08:29:19.077Z,32.9
2018-06-14T08:30:20.718Z,33.3
2018-06-14T08:31:22.363Z,33.0
2018-06-14T08:32:24.002Z,33.1
2018-06-14T08:33:25.633Z,32.7
2018-06-14T08:34:27.264Z,33.0
2018-06-14T08:35:28.909Z,31.9
2018-06-14T08:36:30.545Z,31.5
2018-06-14T08:37:32.180Z,31.5
2018-06-14T08:38:33.817Z,31.1
2018-06-14T08:39:35.454Z,31.3
2018-06-14T08:40:37.089Z,32.1
2018-06-14T08:41:38.726Z,31.9
2018-06-14T08:42:40.362Z,31.8
2018-06-14T08:43:42.001Z,33.6
2018-06-14T08:44:43.691Z,34.4
2018-06-14T08:45:45.277Z,34.7
2018-06-14T08:46:46.911Z,33.6
2018-06-14T08:47:48.548Z,32.6
2018-06-14T08:48:50.180Z,32.1
2018-06-14T08:49:51.823Z,33.2
2018-06-14T08:50:53.456Z,34.8
2018-06-14T08:51:55.095Z,36.2
2018-06-14T08:52:56.731Z,38.0
2018-06-14T08:53:58.365Z,37.6
2018-06-14T08:54:59.997Z,38.8
2018-06-14T08:56:01.636Z,40.5
2018-06-14T08:57:03.272Z,41.7
2018-06-14T08:58:04.908Z,42.3
2018-06-14T08:59:06.542Z,43.3
2018-06-14T09:00:08.180Z,42.6
2018-06-14T09:01:09.810Z,42.2
2018-06-14T09:02:11.443Z,40.6
2018-06-14T09:03:13.073Z,39.3
2018-06-14T09:04:14.708Z,38.7
2018-06-14T09:05:16.337Z,37.5
2018-06-14T09:06:17.976Z,37.4
2018-06-14T09:07:19.606Z,36.9
2018-06-14T09:08:21.244Z,34.5
2018-06-14T09:09:22.871Z,34.1
2018-06-14T09:10:24.509Z,33.0
2018-06-14T09:11:26.147Z,33.3
2018-06-14T09:12:27.779Z,34.7
2018-06-14T09:13:29.412Z,35.6
2018-06-14T09:14:31.053Z,36.0
2018-06-14T09:15:32.689Z,37.4
2018-06-14T09:16:34.319Z,36.4
2018-06-14T09:17:35.951Z,36.3
2018-06-14T09:18:37.592Z,36.8
2018-06-14T09:19:39.220Z,37.6
2018-06-14T09:20:40.862Z,37.7
2018-06-14T09:21:42.493Z,38.4
2018-06-14T09:22:44.133Z,39.7
2018-06-14T09:23:45.763Z,40.4
2018-06-14T09:24:47.402Z,39.5
2018-06-14T09:25:49.026Z,40.6
2018-06-14T09:26:50.666Z,40.4
2018-06-14T09:27:52.301Z,40.7
2018-06-14T09:28:53.928Z,41.6
2018-06-14T09:29:55.571Z,42.6
2018-06-14T09:30:57.191Z,41.5
2018-06-14T09:31:58.822Z,39.6
2018-06-14T09:33:00.454Z,39.5
2018-06-14T09:34:02.091Z,39.6
2018-06-14T09:35:03.720Z,37.5
2018-06-14T09:36:05.352Z,35.7
2018-06-14T09:37:06.987Z,36.0
2018-06-14T09:38:08.623Z,34.7
2018-06-14T09:39:10.253Z,35.7
2018-06-14T09:40:11.888Z,35.5
2018-06-14T09:41:13.520Z,35.7
2018-06-14T09:42:15.157Z,35.7
2018-06-14T09:43:16.799Z,37.2
2018-06-14T09:44:18.430Z,37.5
2018-06-14T09:45:20.066Z,37.7
2018-06-14T09:46:21.697Z,37.6
2018-06-14T09:47:23.335Z,38.3
2018-06-14T09:48:24.966Z,38.8
2018-06-14T09:49:26.603Z,39.7
2018-06-14T09:50:28.242Z,40.4
2018-06-14T09:51:29.869Z,39.7
2018-06-14T09:52:31.508Z,38.9
2018-06-14T09:53:33.132Z,37.8
2018-06-14T09:54:34.764Z,38.4
2018-06-14T09:55:36.404Z,39.8
2018-06-14T09:56:38.034Z,40.5
2018-06-14T09:57:39.671Z,41.9
2018-06-14T09:58:41.307Z,42.0
2018-06-14T09:59:42.932Z,42.3
2018-06-14T10:00:44.565Z,42.1
2018-06-14T10:01:46.200Z,42.1
2018-06-14T10:02:47.838Z,42.4
2018-06-14T10:03:49.468Z,42.0
2018-06-14T10:04:51.102Z,40.4
2018-06-14T10:05:52.738Z,40.6
2018-06-14T10:06:54.370Z,40.6
2018-06-14T10:07:56.002Z,39.6
2018-06-14T10:08:57.634Z,40.6
2018-06-14T10:09:59.272Z,41.2
2018-06-14T10:11:00.904Z,42.4
2018-06-14T10:12:02.540Z,42.8
2018-06-14T10:13:04.168Z,44.7
2018-06-14T10:14:05.801Z,44.2
2018-06-14T10:15:07.429Z,45.1
2018-06-14T10:16:09.068Z,44.8
2018-06-14T10:17:10.693Z,46.4
2018-06-14T10:18:12.329Z,46.4
2018-06-14T10:19:13.956Z,47.7
2018-06-14T10:20:15.591Z,47.1
2018-06-14T10:21:17.747Z,46.7
2018-06-14T10:22:18.800Z,46.0
2018-06-14T10:23:20.428Z,45.9
2018-06-14T10:24:22.063Z,47.3
2018-06-14T10:25:23.690Z,47.5
2018-06-14T10:26:25.324Z,46.1
2018-06-14T10:27:26.952Z,46.0
2018-06-14T10:28:28.579Z,45.4
2018-06-14T10:29:30.210Z,45.0
2018-06-14T10:30:31.839Z,46.0
2018-06-14T10:31:33.467Z,46.5
2018-06-14T10:32:35.100Z,46.3
2018-06-14T10:33:36.728Z,44.5
2018-06-14T10:34:38.401Z,43.0
2018-06-14T10:35:39.985Z,43.0
2018-06-14T10:36:41.616Z,44.5
2018-06-14T10:37:43.244Z,44.8
2018-06-14T10:38:44.878Z,45.0
2018-06-14T10:39:46.503Z,46.2
2018-06-14T10:40:48.140Z,46.1
2018-06-14T10:41:49.768Z,46.5
2018-06-14T10:42:51.397Z,46.7
2018-06-14T10:43:53.030Z,47.6
2018-06-14T10:44:54.656Z,46.6
2018-06-14T10:45:56.289Z,44.6
2018-06-14T10:46:57.919Z,45.4
2018-06-14T10:47:59.550Z,46.7
2018-06-14T10:49:01.182Z,46.1
2018-06-14T10:50:02.811Z,44.4
2018-06-14T10:51:04.444Z,45.2
2018-06-14T10:52:06.076Z,46.3
2018-06-14T10:53:07.709Z,46.1
2018-06-14T10:54:09.340Z,44.6
2018-06-14T10:55:10.970Z,45.5
2018-06-14T10:56:12.598Z,43.1
2018-06-14T10:57:14.232Z,42.9
2018-06-14T10:58:15.865Z,43.5
2018-06-14T10:59:17.496Z,44.0
2018-06-14T11:00:19.129Z,43.4
2018-06-14T11:01:20.769Z,42.2
2018-06-14T11:02:22.401Z,42.5
2018-06-14T11:03:24.035Z,43.1
2018-06-14T11:04:25.669Z,43.4
2018-06-14T11:05:27.298Z,42.4
2018-06-14T11:06:28.934Z,42.5
2018-06-14T11:07:30.566Z,43.4
2018-06-14T11:08:32.199Z,44.4
2018-06-14T11:09:33.829Z,45.1
2018-06-14T11:10:35.459Z,44.7
2018-06-14T11:11:37.093Z,44.9
2018-06-14T11:12:38.724Z,44.6
2018-06-14T11:13:40.351Z,43.5
2018-06-14T11:14:41.986Z,43.2
2018-06-14T11:15:43.623Z,43.6
2018-06-14T11:16:45.260Z,42.4
2018-06-14T11:17:46.887Z,43.0
2018-06-14T11:18:48.520Z,42.4
2018-06-14T11:19:50.155Z,44.7
2018-06-14T11:20:51.792Z,42.7
2018-06-14T11:21:53.425Z,42.4
2018-06-14T11:22:55.059Z,42.3
2018-06-14T11:23:56.694Z,42.4
2018-06-14T11:24:58.322Z,42.2
2018-06-14T11:25:59.956Z,41.5
2018-06-14T11:27:01.590Z,39.8
2018-06-14T11:28:03.220Z,37.5
2018-06-14T11:29:04.854Z,38.1
2018-06-14T11:30:06.499Z,38.2
2018-06-14T11:31:08.127Z,37.8
2018-06-14T11:32:09.760Z,37.7
2018-06-14T11:33:11.390Z,36.4
2018-06-14T11:34:13.029Z,37.5
2018-06-14T11:35:14.661Z,38.5
2018-06-14T11:36:16.307Z,39.4
2018-06-14T11:37:17.930Z,40.5
2018-06-14T11:38:19.572Z,39.7
2018-06-14T11:39:21.210Z,39.4
2018-06-14T11:40:22.842Z,39.1
2018-06-14T11:41:24.477Z,39.3
2018-06-14T11:42:26.108Z,40.1
2018-06-14T11:43:27.748Z,40.7
2018-06-14T11:44:29.381Z,40.7
2018-06-14T11:45:31.019Z,41.6
2018-06-14T11:46:32.650Z,43.0
2018-06-14T11:47:34.284Z,42.3
2018-06-14T11:48:35.912Z,42.4
2018-06-14T11:49:37.548Z,41.3
2018-06-14T11:50:39.177Z,41.9
2018-06-14T11:51:40.818Z,42.1
2018-06-14T11:52:42.446Z,41.9
2018-06-14T11:53:44.077Z,42.2
2018-06-14T11:54:45.709Z,42.1
2018-06-14T11:55:47.340Z,42.3
2018-06-14T11:56:48.971Z,42.3
2018-06-14T11:57:50.601Z,42.6
2018-06-14T11:58:52.231Z,43.8
2018-06-14T11:59:53.860Z,43.6
2018-06-14T12:00:55.488Z,43.8
2018-06-14T12:01:57.120Z,43.8
2018-06-14T12:02:58.750Z,43.3
2018-06-14T12:04:00.371Z,42.5
2018-06-14T12:05:02.008Z,41.4
2018-06-14T12:06:03.635Z,40.7
2018-06-14T12:07:05.272Z,40.4
2018-06-14T12:08:06.895Z,40.9
2018-06-14T12:09:08.531Z,40.4
2018-06-14T12:10:10.160Z,40.3
2018-06-14T12:11:11.795Z,40.6
2018-06-14T12:12:13.424Z,41.6
2018-06-14T12:13:15.062Z,39.3
2018-06-14T12:14:16.696Z,39.1
2018-06-14T12:15:18.327Z,40.8
2018-06-14T12:16:19.963Z,40.1
2018-06-14T12:17:21.595Z,40.4
2018-06-14T12:18:23.225Z,39.9
2018-06-14T12:19:24.863Z,40.2
2018-06-14T12:20:26.488Z,40.7
2018-06-14T12:21:28.173Z,40.4
2018-06-14T12:22:29.757Z,40.2
2018-06-14T12:23:31.387Z,41.3
2018-06-14T12:24:33.017Z,41.4
2018-06-14T12:25:34.652Z,41.7
2018-06-14T12:26:36.287Z,40.9
2018-06-14T12:27:37.916Z,40.9
2018-06-14T12:28:39.549Z,40.9
2018-06-14T12:29:41.174Z,40.9
2018-06-14T12:30:42.805Z,41.2
2018-06-14T12:31:44.507Z,40.4
2018-06-14T12:32:46.066Z,41.3
2018-06-14T12:33:47.703Z,41.1
2018-06-14T12:34:49.330Z,40.5
2018-06-14T12:35:50.963Z,40.4
2018-06-14T12:36:52.592Z,40.4
2018-06-14T12:37:54.226Z,41.0
2018-06-14T12:38:55.861Z,41.1
2018-06-14T12:39:57.484Z,41.3
2018-06-14T12:40:59.112Z,40.7
2018-06-14T12:42:00.752Z,41.3
2018-06-14T12:43:02.382Z,40.5
2018-06-14T12:44:04.018Z,41.8
2018-06-14T12:45:05.644Z,41.3
2018-06-14T12:46:07.273Z,41.8
2018-06-14T12:47:08.900Z,41.9
2018-06-14T12:48:10.539Z,40.9
2018-06-14T12:49:12.175Z,40.8
2018-06-14T12:50:13.810Z,40.5
2018-06-14T12:51:15.433Z,39.1
2018-06-14T12:52:17.115Z,40.1
2018-06-14T12:53:18.698Z,39.4
2018-06-14T12:54:20.326Z,38.8
2018-06-14T12:55:21.963Z,38.3
2018-06-14T12:56:23.596Z,38.0
2018-06-14T12:57:25.234Z,38.3
2018-06-14T12:58:26.903Z,38.6
2018-06-14T12:59:28.500Z,38.7
2018-06-14T13:00:30.125Z,39.1
2018-06-14T13:01:31.796Z,39.3
2018-06-14T13:02:33.391Z,38.6
2018-06-14T13:03:35.031Z,38.9
2018-06-14T13:04:36.668Z,38.6
2018-06-14T13:05:38.294Z,38.2
2018-06-14T13:06:39.933Z,38.3
2018-06-14T13:07:41.559Z,39.1
2018-06-14T13:08:43.197Z,39.5
2018-06-14T13:09:44.830Z,39.8
2018-06-14T13:10:46.466Z,40.5
2018-06-14T13:11:48.106Z,41.1
2018-06-14T13:12:49.742Z,41.9
2018-06-14T13:13:51.366Z,41.8
2018-06-14T13:14:53.000Z,41.4
2018-06-14T13:15:54.666Z,41.3
2018-06-14T13:16:56.261Z,41.9
2018-06-14T13:17:57.889Z,41.9
2018-06-14T13:18:59.522Z,41.8
2018-06-14T13:20:01.145Z,42.0
2018-06-14T13:21:02.782Z,42.7
2018-06-14T13:22:04.411Z,42.9
2018-06-14T13:23:06.089Z,42.4
2018-06-14T13:24:07.671Z,42.5
2018-06-14T13:25:09.301Z,42.4
2018-06-14T13:26:10.930Z,42.1
2018-06-14T13:27:12.562Z,42.0
2018-06-14T13:28:14.192Z,42.1
2018-06-14T13:29:15.820Z,43.3
2018-06-14T13:30:17.456Z,43.7
2018-06-14T13:31:19.082Z,42.4
2018-06-14T13:32:20.712Z,43.6